Time;durP1;ratioP1;P1;durP2;ratioP2;P2;SDS_P1;SDS_P2;PMS_P1;PMS_P2;Temp;Humidity;BMP_temperature;BMP_pressure;BME280_temperature;BME280_humidity;BME280_pressure;Samples;Min_cycle;Max_cycle;Signal;HPM_P1;HPM_P2
2022/06/03 00:02:09;;;;;;;6.95;4.60;;;11.90;99.90;;;;;;4986910;28;20058;-56
2022/06/03 00:04:53;;;;;;;11.45;4.93;;;11.90;99.90;;;;;;4986637;28;20049;-56
2022/06/03 00:07:51;;;;;;;7.25;4.70;;;11.80;99.90;;;;;;4987472;28;20039;-55
2022/06/03 00:10:42;;;;;;;8.32;4.80;;;11.90;99.90;;;;;;4986980;28;20061;-55
2022/06/03 00:13:37;;;;;;;7.53;4.57;;;11.70;99.90;;;;;;4986452;28;20066;-55
2022/06/03 00:16:21;;;;;;;6.60;4.50;;;11.40;99.90;;;;;;4986496;28;20047;-55
2022/06/03 00:18:52;;;;;;;6.70;4.65;;;11.70;99.90;;;;;;4986362;28;20074;-55
2022/06/03 00:21:55;;;;;;;7.97;5.10;;;11.20;99.90;;;;;;4986658;28;20042;-55
2022/06/03 00:24:26;;;;;;;7.93;4.68;;;11.70;99.90;;;;;;4985935;28;20055;-56
2022/06/03 00:27:15;;;;;;;8.23;5.03;;;11.60;99.90;;;;;;4986432;28;20082;-54
2022/06/03 00:30:04;;;;;;;9.43;4.90;;;11.60;99.90;;;;;;4986015;28;20039;-56
2022/06/03 00:32:36;;;;;;;7.30;4.70;;;11.60;99.90;;;;;;4986286;28;20070;-56
2022/06/03 00:35:04;;;;;;;10.20;5.10;;;11.60;99.90;;;;;;4986140;28;20043;-55
2022/06/03 00:37:48;;;;;;;8.75;5.03;;;11.60;99.90;;;;;;4986628;28;20046;-55
2022/06/03 00:40:22;;;;;;;8.85;4.95;;;11.70;99.90;;;;;;4986113;28;20043;-56
2022/06/03 00:43:12;;;;;;;8.10;4.70;;;11.70;99.90;;;;;;4986145;28;20047;-56
2022/06/03 00:46:16;;;;;;;8.63;4.50;;;11.70;99.90;;;;;;4968923;28;20051;-56
2022/06/03 00:49:24;;;;;;;9.38;4.90;;;11.30;99.90;;;;;;4962479;28;20046;-56
2022/06/03 00:52:08;;;;;;;;;;;11.60;99.90;;;;;;4986430;28;20062;-56
2022/06/03 00:55:09;;;;;;;10.23;5.45;;;11.20;99.90;;;;;;4985161;28;20219;-59
2022/06/03 00:57:43;;;;;;;9.43;5.75;;;11.50;99.90;;;;;;4972900;28;20049;-59
2022/06/03 01:00:24;;;;;;;10.93;5.68;;;11.50;99.90;;;;;;4985471;28;20043;-59
2022/06/03 01:03:04;;;;;;;9.57;5.40;;;11.60;99.90;;;;;;4993766;28;20038;-61
2022/06/03 01:05:51;;;;;;;10.10;5.63;;;11.70;99.90;;;;;;4993293;28;20034;-59
2022/06/03 01:08:32;;;;;;;;;;;11.50;99.90;;;;;;4999309;28;20100;-59
2022/06/03 01:11:17;;;;;;;9.18;5.28;;;11.50;99.90;;;;;;4986238;28;19920;-61
2022/06/03 01:14:07;;;;;;;11.23;5.35;;;11.40;99.90;;;;;;4985676;28;20228;-59
2022/06/03 01:16:58;;;;;;;10.20;5.18;;;11.40;99.90;;;;;;4985428;28;20047;-60
2022/06/03 01:19:39;;;;;;;7.65;5.32;;;11.50;99.90;;;;;;5002249;28;20315;-59
2022/06/03 01:22:34;;;;;;;10.38;5.72;;;11.10;99.90;;;;;;5005058;28;20109;-59
2022/06/03 01:25:26;;;;;;;12.45;6.05;;;11.30;99.90;;;;;;4983404;28;20057;-61
2022/06/03 01:28:09;;;;;;;10.18;6.18;;;10.90;99.90;;;;;;4987512;28;20204;-60
2022/06/03 01:30:53;;;;;;;13.65;6.38;;;11.40;99.90;;;;;;5004520;28;20046;-61
2022/06/03 01:33:41;;;;;;;11.57;6.65;;;11.10;99.90;;;;;;4987610;28;20046;-55
2022/06/03 01:36:19;;;;;;;10.38;7.07;;;11.20;99.90;;;;;;4990696;28;20047;-56
2022/06/03 01:39:02;;;;;;;10.13;6.38;;;11.10;99.90;;;;;;4985374;28;20049;-56
2022/06/03 01:41:37;;;;;;;12.48;6.57;;;10.90;99.90;;;;;;4985409;28;20139;-56
2022/06/03 01:44:40;;;;;;;10.50;6.10;;;11.00;99.90;;;;;;4985038;28;20047;-56
2022/06/03 01:47:15;;;;;;;10.15;6.65;;;11.30;99.90;;;;;;4984898;28;20049;-57
2022/06/03 01:50:16;;;;;;;9.05;6.55;;;11.00;99.90;;;;;;4985119;28;20220;-57
2022/06/03 01:52:48;;;;;;;13.40;6.55;;;11.00;99.90;;;;;;4952075;28;20038;-56
2022/06/03 01:55:32;;;;;;;11.23;6.80;;;10.90;99.90;;;;;;4967660;28;20057;-56
2022/06/03 01:58:22;;;;;;;9.65;6.57;;;11.10;99.90;;;;;;4984913;28;20074;-57
2022/06/03 02:01:02;;;;;;;13.82;6.63;;;10.90;99.90;;;;;;4984483;28;20073;-56
2022/06/03 02:03:45;;;;;;;12.38;6.60;;;10.90;99.90;;;;;;4984973;28;20082;-56
2022/06/03 02:06:22;;;;;;;9.55;6.65;;;10.70;99.90;;;;;;4984825;28;20313;-56
2022/06/03 02:09:25;;;;;;;12.05;7.00;;;10.80;99.90;;;;;;4969330;28;20125;-56
2022/06/03 02:12:35;;;;;;;9.32;6.85;;;10.90;99.90;;;;;;5004091;28;20043;-56
2022/06/03 02:15:29;;;;;;;11.07;7.07;;;10.80;99.90;;;;;;5003501;28;20065;-56
2022/06/03 02:18:13;;;;;;;10.45;6.95;;;10.70;99.90;;;;;;5004106;28;20113;-58
2022/06/03 02:20:54;;;;;;;14.98;7.18;;;10.70;99.90;;;;;;5004199;28;20227;-57
2022/06/03 02:23:32;;;;;;;12.13;6.88;;;11.10;99.90;;;;;;5004217;28;20197;-56
2022/06/03 02:26:14;;;;;;;13.57;7.10;;;10.90;99.90;;;;;;5003568;28;20057;-56
2022/06/03 02:28:39;;;;;;;13.75;7.03;;;11.40;99.90;;;;;;5003967;28;20053;-57
2022/06/03 02:31:33;;;;;;;11.02;7.32;;;10.00;99.90;;;;;;5003835;28;20197;-56
2022/06/03 02:34:27;;;;;;;12.57;7.55;;;10.50;99.90;;;;;;4986412;28;20285;-56
2022/06/03 02:37:34;;;;;;;14.52;7.50;;;10.50;99.90;;;;;;5003654;28;20379;-55
2022/06/03 02:40:10;;;;;;;;;;;10.60;99.90;;;;;;4906458;29;20051;-60
2022/06/03 02:42:45;;;;;;;10.82;7.47;;;10.50;99.90;;;;;;4906217;29;20189;-61
2022/06/03 02:45:41;;;;;;;12.32;7.57;;;10.10;99.90;;;;;;4906240;29;20053;-60
2022/06/03 02:48:32;;;;;;;11.10;7.38;;;10.40;99.90;;;;;;4906411;29;20190;-60
2022/06/03 02:51:03;;;;;;;12.95;7.95;;;10.50;99.90;;;;;;4905868;29;20052;-60
2022/06/03 02:53:46;;;;;;;11.95;7.90;;;10.30;99.90;;;;;;4906014;29;20127;-56
2022/06/03 02:56:23;;;;;;;13.13;8.38;;;10.20;99.90;;;;;;4890711;29;20175;-56
2022/06/03 02:59:07;;;;;;;13.50;8.40;;;10.50;99.90;;;;;;4905828;29;20052;-55
2022/06/03 03:01:54;;;;;;;12.70;7.95;;;10.40;99.90;;;;;;4906059;29;20086;-55
2022/06/03 03:04:28;;;;;;;;;;;10.40;99.90;;;;;;4890676;29;20041;-56
2022/06/03 03:07:12;;;;;;;12.88;7.93;;;10.60;99.90;;;;;;4906155;29;19959;-55
2022/06/03 03:09:43;;;;;;;14.52;7.70;;;10.40;99.90;;;;;;4906143;29;20041;-56
2022/06/03 03:12:36;;;;;;;12.75;8.15;;;10.30;99.90;;;;;;4905792;29;20114;-55
2022/06/03 03:15:20;;;;;;;12.70;7.57;;;10.50;99.90;;;;;;4905737;29;20048;-55
2022/06/03 03:17:57;;;;;;;13.65;7.85;;;10.10;99.90;;;;;;5000873;28;20042;-55
2022/06/03 03:20:29;;;;;;;11.73;7.35;;;10.00;99.90;;;;;;5007088;28;20382;-56
2022/06/03 03:23:21;;;;;;;10.68;7.47;;;13.40;99.90;;;;;;5007051;28;20092;-56
2022/06/03 03:26:09;;;;;;;13.18;7.63;;;10.10;99.90;;;;;;5006503;28;20292;-55
2022/06/03 03:28:58;;;;;;;16.88;8.20;;;10.40;99.90;;;;;;4989900;28;20085;-53
2022/06/03 03:31:43;;;;;;;13.05;8.00;;;10.00;99.90;;;;;;4994336;28;20038;-55
2022/06/03 03:34:14;;;;;;;12.68;7.97;;;10.40;99.90;;;;;;5006837;28;20342;-56
2022/06/03 03:37:14;;;;;;;13.73;7.90;;;9.80;99.90;;;;;;5007239;28;20050;-55
2022/06/03 03:40:06;;;;;;;13.68;8.65;;;10.00;99.90;;;;;;5006754;28;20049;-55
2022/06/03 03:42:54;;;;;;;13.13;8.25;;;10.30;99.90;;;;;;5006818;28;20326;-55
2022/06/03 03:45:35;;;;;;;13.52;8.30;;;10.30;99.90;;;;;;5006766;28;20339;-56
2022/06/03 03:48:40;;;;;;;17.92;8.90;;;10.40;99.90;;;;;;5006654;28;20034;-56
2022/06/03 03:51:32;;;;;;;15.25;9.23;;;10.00;99.90;;;;;;4989447;28;20073;-55
2022/06/03 03:54:35;;;;;;;15.25;8.57;;;10.40;99.90;;;;;;5006335;28;20073;-56
2022/06/03 03:57:24;;;;;;;12.68;8.90;;;10.30;99.90;;;;;;4988832;28;20153;-54
2022/06/03 04:00:28;;;;;;;17.30;9.05;;;10.30;99.90;;;;;;5006368;28;20085;-56
2022/06/03 04:03:14;;;;;;;14.52;9.02;;;10.20;99.90;;;;;;5006485;28;20042;-55
2022/06/03 04:05:40;;;;;;;13.50;9.07;;;;;;;;;;4987809;28;20117;-56
2022/06/03 04:08:24;;;;;;;14.15;9.07;;;10.00;99.90;;;;;;5006196;28;20038;-56
2022/06/03 04:11:27;;;;;;;15.57;9.18;;;10.30;99.90;;;;;;5005963;28;20049;-57
2022/06/03 04:14:24;;;;;;;15.25;9.10;;;10.40;99.90;;;;;;5006078;28;20053;-56
2022/06/03 04:17:23;;;;;;;13.48;9.10;;;10.40;99.90;;;;;;5006237;28;20049;-55
2022/06/03 04:20:05;;;;;;;15.52;9.20;;;10.50;99.90;;;;;;5005867;28;20034;-56
2022/06/03 04:23:23;;;;;;;14.25;8.82;;;10.50;99.90;;;;;;5006269;28;20315;-56
2022/06/03 04:26:17;;;;;;;13.30;8.48;;;10.40;99.90;;;;;;4907618;29;20045;-56
2022/06/03 04:28:56;;;;;;;13.52;8.55;;;10.90;99.90;;;;;;4908127;29;20048;-56
2022/06/03 04:32:03;;;;;;;14.30;8.20;;;10.80;99.90;;;;;;4908231;29;20051;-56
2022/06/03 04:35:21;;;;;;;13.07;7.90;;;11.20;99.90;;;;;;4907085;29;20052;-56
2022/06/03 04:38:17;;;;;;;12.38;7.68;;;13.50;99.90;;;;;;4885214;29;20044;-55
2022/06/03 04:41:16;;;;;;;11.13;6.63;;;13.80;99.90;;;;;;4907630;29;20091;-55
2022/06/03 04:44:00;;;;;;;11.35;7.10;;;14.80;99.90;;;;;;4907941;29;20075;-55
2022/06/03 04:47:11;;;;;;;11.05;6.50;;;15.90;99.90;;;;;;4908178;29;20397;-55
2022/06/03 04:50:10;;;;;;;9.85;6.30;;;16.70;99.90;;;;;;4893315;29;20040;-55
2022/06/03 04:53:13;;;;;;;14.35;6.50;;;17.50;99.90;;;;;;4892449;29;20040;-55
2022/06/03 04:56:19;;;;;;;10.85;6.40;;;17.70;99.90;;;;;;4907732;29;20048;-55
2022/06/03 04:59:22;;;;;;;10.93;6.18;;;18.00;99.90;;;;;;4907593;29;20261;-55
2022/06/03 05:02:22;;;;;;;9.73;6.10;;;18.40;99.90;;;;;;4914537;28;20139;-55
2022/06/03 05:05:17;;;;;;;10.45;6.10;;;18.90;99.80;;;;;;5005060;28;20113;-55
2022/06/03 05:08:07;;;;;;;12.88;6.00;;;19.30;97.70;;;;;;5005053;28;20129;-56
2022/06/03 05:11:08;;;;;;;12.40;6.35;;;19.50;94.70;;;;;;5005413;28;20049;-55
2022/06/03 05:13:59;;;;;;;10.00;6.22;;;20.40;97.30;;;;;;4988100;28;20252;-55
2022/06/03 05:16:42;;;;;;;11.07;6.22;;;19.80;89.70;;;;;;5004895;28;20049;-56
2022/06/03 05:19:27;;;;;;;8.93;5.85;;;19.90;86.20;;;;;;5004837;28;20038;-55
2022/06/03 05:22:15;;;;;;;9.77;6.40;;;20.10;83.10;;;;;;5004490;28;20315;-55
2022/06/03 05:25:02;;;;;;;10.85;6.20;;;20.30;76.30;;;;;;5004423;28;20065;-55
2022/06/03 05:28:01;;;;;;;9.93;6.40;;;20.50;77.70;;;;;;5004902;28;20379;-56
2022/06/03 05:30:57;;;;;;;10.15;6.15;;;21.00;77.30;;;;;;5004626;28;20093;-55
2022/06/03 05:33:50;;;;;;;9.38;6.25;;;21.10;82.60;;;;;;5004877;28;20110;-56
2022/06/03 05:36:53;;;;;;;9.75;6.32;;;20.90;81.70;;;;;;5004646;28;20042;-56
2022/06/03 05:39:40;;;;;;;11.25;6.38;;;20.80;68.80;;;;;;5003973;28;20042;-56
2022/06/03 05:42:28;;;;;;;8.55;6.15;;;20.90;66.40;;;;;;5004476;28;20089;-56
2022/06/03 05:45:31;;;;;;;11.70;6.00;;;21.00;68.30;;;;;;4986991;28;20118;-56
2022/06/03 05:48:15;;;;;;;9.30;6.20;;;21.40;65.40;;;;;;5004430;28;20080;-56
2022/06/03 05:50:52;;;;;;;7.88;5.80;;;21.40;65.60;;;;;;4986964;28;20046;-56
2022/06/03 05:53:21;;;;;;;14.95;5.75;;;21.80;64.40;;;;;;5004553;28;20045;-56
2022/06/03 05:56:18;;;;;;;8.38;5.65;;;21.80;62.20;;;;;;5004027;28;20050;-56
2022/06/03 05:59:02;;;;;;;8.70;5.38;;;21.90;60.10;;;;;;5004348;28;20097;-56
2022/06/03 06:01:41;;;;;;;9.82;5.80;;;22.00;60.40;;;;;;5004455;28;20081;-56
2022/06/03 06:04:24;;;;;;;11.02;5.55;;;21.90;60.60;;;;;;5003705;28;20048;-56
2022/06/03 06:06:59;;;;;;;10.52;5.78;;;21.90;59.70;;;;;;5004064;28;20096;-56
2022/06/03 06:09:45;;;;;;;10.68;5.38;;;21.40;60.00;;;;;;5004324;28;20378;-56
2022/06/03 06:12:13;;;;;;;10.30;5.00;;;22.60;68.40;;;;;;5004392;28;20170;-56
2022/06/03 06:15:06;;;;;;;9.35;4.65;;;22.40;57.10;;;;;;5003686;28;20038;-56
2022/06/03 06:18:13;;;;;;;8.18;4.70;;;22.80;67.50;;;;;;5004205;28;20042;-56
2022/06/03 06:20:51;;;;;;;8.85;5.18;;;22.70;57.20;;;;;;4905649;29;20052;-56
2022/06/03 06:23:29;;;;;;;10.18;4.97;;;22.90;55.50;;;;;;4903967;29;20097;-56
2022/06/03 06:26:18;;;;;;;7.03;4.70;;;22.70;67.00;;;;;;4902993;29;20043;-56
2022/06/03 06:29:24;;;;;;;7.82;4.68;;;22.50;68.10;;;;;;4875072;29;20265;-56
2022/06/03 06:32:13;;;;;;;9.80;4.80;;;22.70;67.90;;;;;;4850132;29;20156;-56
2022/06/03 06:35:16;;;;;;;8.50;4.43;;;23.20;65.00;;;;;;4850395;29;20045;-56
2022/06/03 06:38:02;;;;;;;7.57;4.38;;;23.30;53.50;;;;;;4850146;29;20064;-56
2022/06/03 06:40:46;;;;;;;7.80;4.50;;;23.60;53.30;;;;;;4851336;29;20048;-56
2022/06/03 06:43:35;;;;;;;9.18;4.50;;;23.90;62.10;;;;;;4844988;29;20050;-56
2022/06/03 06:46:17;;;;;;;7.18;4.35;;;24.00;52.80;;;;;;4852514;29;20052;-56
2022/06/03 06:49:04;;;;;;;8.95;4.25;;;23.90;52.70;;;;;;4850478;29;20385;-56
2022/06/03 06:51:32;;;;;;;13.45;4.30;;;23.60;52.70;;;;;;4832155;29;20034;-56
2022/06/03 06:54:21;;;;;;;8.07;4.18;;;23.20;53.00;;;;;;4837861;29;20042;-56
2022/06/03 06:56:51;;;;;;;8.77;4.30;;;23.00;54.60;;;;;;4843415;29;20242;-56
2022/06/03 06:59:44;;;;;;;7.32;4.18;;;22.70;65.80;;;;;;4901482;29;20167;-56
2022/06/03 07:02:25;;;;;;;6.20;3.55;;;22.50;55.80;;;;;;4928985;29;20107;-56
2022/06/03 07:05:04;;;;;;;8.27;4.18;;;22.40;56.70;;;;;;4927983;29;20052;-56
2022/06/03 07:07:46;;;;;;;7.00;3.70;;;22.30;57.60;;;;;;4954551;28;20045;-56
2022/06/03 07:10:20;;;;;;;7.40;3.88;;;21.70;58.30;;;;;;4993856;28;20146;-56
2022/06/03 07:13:09;;;;;;;8.95;3.50;;;21.80;71.80;;;;;;4996281;28;20106;-56
2022/06/03 07:16:04;;;;;;;6.95;3.45;;;21.80;60.90;;;;;;4994201;28;20069;-56
2022/06/03 07:21:59;;;;;;;6.30;3.50;;;21.00;63.20;;;;;;4995560;28;20129;-56
2022/06/03 07:24:41;;;;;;;8.18;3.60;;;20.80;66.30;;;;;;5006046;28;20065;-56
2022/06/03 07:27:15;;;;;;;6.60;3.63;;;20.70;79.30;;;;;;5005889;28;20081;-56
2022/06/03 07:29:48;;;;;;;12.85;3.70;;;20.80;68.40;;;;;;5005247;28;20038;-56
2022/06/03 07:32:20;;;;;;;8.63;3.60;;;20.60;68.10;;;;;;5006234;28;20110;-56
2022/06/03 07:35:01;;;;;;;8.88;3.33;;;21.50;83.50;;;;;;5006180;28;20088;-56
2022/06/03 07:37:39;;;;;;;9.95;3.60;;;20.10;72.40;;;;;;5007133;28;20050;-56
2022/06/03 07:40:24;;;;;;;8.65;3.38;;;20.00;73.40;;;;;;4989076;28;20105;-56
2022/06/03 07:43:21;;;;;;;8.10;3.70;;;20.10;74.70;;;;;;5006752;28;20074;-56
2022/06/03 07:45:53;;;;;;;5.68;3.40;;;20.30;76.00;;;;;;5006192;28;20048;-60
2022/06/03 07:48:22;;;;;;;8.52;3.42;;;20.40;75.10;;;;;;5006511;28;20153;-60
2022/06/03 07:50:54;;;;;;;12.77;3.42;;;20.50;74.50;;;;;;5006459;28;20042;-56
2022/06/03 07:53:45;;;;;;;4.43;3.20;;;20.70;74.50;;;;;;5006660;28;20042;-57
2022/06/03 07:56:11;;;;;;;6.95;3.50;;;20.50;73.70;;;;;;5005679;28;20280;-55
2022/06/03 07:58:38;;;;;;;5.72;3.20;;;20.00;83.60;;;;;;5005462;28;20042;-55
2022/06/03 08:01:06;;;;;;;10.10;3.50;;;20.10;76.70;;;;;;4987980;28;20038;-55
2022/06/03 08:03:38;;;;;;;6.72;3.85;;;20.20;78.80;;;;;;4988189;28;20054;-55
2022/06/03 08:06:07;;;;;;;7.93;3.30;;;20.30;78.00;;;;;;5006076;28;20046;-55
2022/06/03 08:11:31;;;;;;;5.97;3.50;;;20.40;79.00;;;;;;5006104;28;20148;-56
2022/06/03 08:14:00;;;;;;;6.55;3.50;;;20.50;79.00;;;;;;5006001;28;20078;-56
2022/06/03 08:16:36;;;;;;;5.75;3.50;;;20.60;77.30;;;;;;5006205;28;20388;-55
2022/06/03 08:19:15;;;;;;;8.35;3.30;;;20.30;74.60;;;;;;4988511;28;20073;-56
2022/06/03 08:21:53;;;;;;;8.40;3.55;;;20.20;87.80;;;;;;5006104;28;20038;-56
2022/06/03 08:24:25;;;;;;;7.20;3.58;;;19.90;89.60;;;;;;5006102;28;20252;-56
2022/06/03 08:26:56;;;;;;;6.43;3.42;;;19.90;81.00;;;;;;5005874;28;20089;-56
2022/06/03 08:29:37;;;;;;;6.97;3.80;;;20.00;81.50;;;;;;5005769;28;20042;-57
2022/06/03 08:32:08;;;;;;;17.35;3.30;;;20.10;79.60;;;;;;4988090;28;20259;-55
2022/06/03 08:34:39;;;;;;;8.18;3.40;;;20.40;80.60;;;;;;5005692;28;20038;-55
2022/06/03 08:37:09;;;;;;;6.57;3.60;;;20.70;80.00;;;;;;5006051;28;20049;-56
2022/06/03 08:39:38;;;;;;;7.88;3.50;;;20.80;78.20;;;;;;4988397;28;20058;-56
2022/06/03 08:42:13;;;;;;;6.95;3.53;;;20.80;77.20;;;;;;5005731;28;20071;-56
2022/06/03 08:44:52;;;;;;;5.07;3.60;;;21.00;75.90;;;;;;5005334;28;20046;-56
2022/06/03 08:47:21;;;;;;;7.57;3.70;;;20.70;85.80;;;;;;5005929;28;20048;-56
2022/06/03 08:50:01;;;;;;;7.32;3.83;;;20.50;76.50;;;;;;5005612;28;20060;-56
2022/06/03 08:52:49;;;;;;;6.78;3.60;;;20.70;77.20;;;;;;5005851;28;20047;-56
2022/06/03 08:55:35;;;;;;;6.40;3.65;;;20.70;73.40;;;;;;4988031;28;20219;-56
2022/06/03 08:58:31;;;;;;;8.55;3.60;;;20.80;75.00;;;;;;4956234;28;20077;-56
2022/06/03 09:01:36;;;;;;;8.45;3.58;;;20.70;75.40;;;;;;5004928;28;20045;-56
2022/06/03 09:04:11;;;;;;;7.70;3.65;;;20.70;74.50;;;;;;5005132;28;20046;-56
2022/06/03 09:07:04;;;;;;;9.30;3.65;;;20.70;76.70;;;;;;5005279;28;20042;-56
2022/06/03 09:09:43;;;;;;;8.48;3.80;;;20.80;76.30;;;;;;5005163;28;20046;-56
2022/06/03 09:12:34;;;;;;;8.68;3.40;;;20.90;75.20;;;;;;5005429;28;20090;-56
2022/06/03 09:15:11;;;;;;;6.07;3.65;;;21.10;73.90;;;;;;5003879;28;20045;-56
2022/06/03 09:17:37;;;;;;;5.05;3.53;;;21.20;72.70;;;;;;4995943;28;20040;-56
2022/06/03 09:20:13;;;;;;;6.05;4.10;;;21.20;72.60;;;;;;5004561;28;20114;-56
2022/06/03 09:22:42;;;;;;;8.77;3.38;;;21.20;70.70;;;;;;5005179;28;20049;-56
2022/06/03 09:25:11;;;;;;;7.47;3.92;;;20.80;79.10;;;;;;5095859;23;20073;-58
2022/06/03 09:27:38;;;;;;;4.65;3.40;;;21.20;72.00;;;;;;4955661;29;20501;-59
2022/06/03 09:30:06;;;;;;;8.05;3.22;;;21.20;70.00;;;;;;4939378;28;20130;-58
2022/06/03 09:32:45;;;;;;;5.03;3.10;;;21.30;68.90;;;;;;4957823;28;20470;-59
2022/06/03 09:35:19;;;;;;;7.57;3.53;;;21.50;67.70;;;;;;4975229;28;20057;-59
2022/06/03 09:37:51;;;;;;;5.75;3.40;;;21.60;66.30;;;;;;4975619;28;20125;-56
2022/06/03 09:40:22;;;;;;;7.03;3.97;;;21.60;66.20;;;;;;4975454;28;20083;-56
2022/06/03 09:43:04;;;;;;;6.93;3.50;;;21.60;66.90;;;;;;4957848;28;20054;-56
2022/06/03 09:45:31;;;;;;;10.88;3.72;;;21.60;66.50;;;;;;4975285;28;20050;-55
2022/06/03 09:47:59;;;;;;;7.60;3.55;;;21.60;65.40;;;;;;4974965;28;20482;-56
2022/06/03 09:50:26;;;;;;;6.50;3.30;;;21.60;63.60;;;;;;4975243;28;20181;-56
2022/06/03 09:53:06;;;;;;;8.48;3.30;;;21.60;62.80;;;;;;4974865;28;20502;-56
2022/06/03 09:55:41;;;;;;;5.47;2.95;;;21.50;63.30;;;;;;4975177;28;20126;-56
2022/06/03 09:58:12;;;;;;;6.83;3.20;;;21.60;65.80;;;;;;4957593;28;20109;-56
2022/06/03 10:00:51;;;;;;;5.55;3.38;;;21.80;64.20;;;;;;4975122;28;20086;-56
2022/06/03 10:03:18;;;;;;;4.57;3.10;;;21.70;62.60;;;;;;4975096;28;20050;-56
2022/06/03 10:05:50;;;;;;;5.82;3.42;;;21.80;63.80;;;;;;4974842;28;20062;-55
2022/06/03 10:08:19;;;;;;;5.13;3.00;;;21.80;63.70;;;;;;4958654;28;20133;-56
2022/06/03 10:13:32;;;;;;;11.45;3.47;;;21.90;63.30;;;;;;4974844;28;20053;-58
2022/06/03 10:16:03;;;;;;;7.22;3.28;;;21.90;62.00;;;;;;4974719;28;20051;-58
2022/06/03 10:18:39;;;;;;;4.80;2.97;;;21.90;61.60;;;;;;4974724;28;20122;-58
2022/06/03 10:21:05;;;;;;;5.65;2.88;;;21.90;59.60;;;;;;4975141;28;20130;-55
2022/06/03 10:23:45;;;;;;;4.93;2.70;;;21.90;61.60;;;;;;4974635;28;20126;-58
2022/06/03 10:26:31;;;;;;;6.72;2.80;;;22.00;60.20;;;;;;4973870;28;20062;-58
2022/06/03 10:29:06;;;;;;;4.72;3.00;;;22.00;59.60;;;;;;4974740;28;20190;-58
2022/06/03 10:31:34;;;;;;;6.20;2.50;;;22.00;59.50;;;;;;4974359;28;20125;-58
2022/06/03 10:34:04;;;;;;;5.28;2.60;;;22.30;61.10;;;;;;4974671;28;20058;-58
2022/06/03 10:36:36;;;;;;;3.97;2.47;;;22.50;59.60;;;;;;4974601;28;20043;-58
2022/06/03 10:39:02;;;;;;;5.85;2.92;;;22.60;58.70;;;;;;4956971;28;20054;-56
2022/06/03 10:41:56;;;;;;;5.00;2.63;;;22.50;56.70;;;;;;4974217;28;20561;-56
2022/06/03 10:44:36;;;;;;;6.53;2.55;;;22.40;55.60;;;;;;4954367;28;20055;-56
2022/06/03 10:47:03;;;;;;;5.18;2.90;;;22.30;57.00;;;;;;4974591;28;20046;-56
2022/06/03 10:49:32;;;;;;;4.28;2.53;;;22.30;57.00;;;;;;4974243;28;20091;-56
2022/06/03 11:03:21;;;;;;;7.57;2.90;;;22.60;55.90;;;;;;4974391;28;20051;-57
2022/06/03 11:05:47;;;;;;;4.78;2.90;;;22.50;55.10;;;;;;4974432;28;20051;-57
2022/06/03 11:08:13;;;;;;;4.55;3.10;;;22.30;55.80;;;;;;4974390;28;20150;-57
2022/06/03 11:10:46;;;;;;;3.38;2.78;;;22.30;55.50;;;;;;4974092;28;20075;-57
2022/06/03 11:13:24;;;;;;;4.20;2.80;;;22.40;56.20;;;;;;4957015;28;20063;-59
2022/06/03 11:15:49;;;;;;;5.07;2.60;;;22.20;55.40;;;;;;4973986;28;20050;-58
2022/06/03 11:18:19;;;;;;;5.97;2.30;;;22.20;56.10;;;;;;4973986;28;20157;-58
2022/06/03 11:20:48;;;;;;;6.78;2.63;;;22.20;56.10;;;;;;4956723;28;20093;-59
2022/06/03 11:23:14;;;;;;;3.30;2.40;;;22.30;56.20;;;;;;4973735;28;20502;-59
2022/06/03 11:25:49;;;;;;;3.83;2.55;;;22.40;56.40;;;;;;4956520;28;20058;-59
2022/06/03 11:28:15;;;;;;;4.55;2.60;;;22.50;56.00;;;;;;4974291;28;20039;-59
2022/06/03 11:30:43;;;;;;;4.93;2.50;;;22.60;55.70;;;;;;4973953;28;20505;-59
2022/06/03 11:33:15;;;;;;;3.63;2.38;;;22.60;56.10;;;;;;4973888;28;20513;-59
2022/06/03 11:36:02;;;;;;;3.47;2.33;;;22.80;56.40;;;;;;4974231;28;20465;-59
2022/06/03 11:38:32;;;;;;;3.55;2.20;;;22.90;55.30;;;;;;4976153;28;20054;-59
2022/06/03 11:41:25;;;;;;;6.20;2.70;;;23.00;55.60;;;;;;4977358;28;20062;-59
2022/06/03 11:44:14;;;;;;;7.05;2.83;;;23.00;55.50;;;;;;4965112;28;20137;-59
2022/06/03 11:46:48;;;;;;;4.30;2.50;;;23.00;55.40;;;;;;4960222;28;20059;-59
2022/06/03 11:49:19;;;;;;;5.00;2.70;;;23.00;55.90;;;;;;4977419;28;20421;-59
2022/06/03 11:51:46;;;;;;;3.42;2.30;;;22.90;54.30;;;;;;4977034;28;20549;-59
2022/06/03 11:54:15;;;;;;;4.22;2.60;;;22.80;54.70;;;;;;4976925;28;20450;-59
2022/06/03 11:56:43;;;;;;;5.45;2.53;;;22.90;55.00;;;;;;4977204;28;20086;-59
2022/06/03 11:59:20;;;;;;;4.95;2.47;;;22.90;55.60;;;;;;4977313;28;20047;-59
2022/06/03 12:01:49;;;;;;;5.25;2.92;;;23.00;55.90;;;;;;4959617;28;20151;-59
2022/06/03 12:04:36;;;;;;;6.97;2.80;;;23.00;55.20;;;;;;4977119;28;20145;-59
2022/06/03 12:07:28;;;;;;;5.57;2.80;;;23.00;54.10;;;;;;4977718;28;20058;-59
2022/06/03 12:10:10;;;;;;;4.95;2.50;;;23.10;54.70;;;;;;4943462;28;20055;-59
2022/06/03 12:13:21;;;;;;;9.55;2.97;;;23.20;54.20;;;;;;4977109;28;20043;-59
2022/06/03 12:15:35;;;;;;;4.90;2.67;;;23.30;54.90;;;;;;4968648;28;20047;-59
2022/06/03 12:18:06;;;;;;;3.60;2.78;;;23.30;55.60;;;;;;4960113;28;20051;-59
2022/06/03 12:20:32;;;;;;;5.75;3.00;;;23.30;54.60;;;;;;4976969;28;20046;-57
2022/06/03 12:23:18;;;;;;;6.68;2.88;;;23.30;55.20;;;;;;4976572;28;20566;-57
2022/06/03 12:26:06;;;;;;;6.47;2.40;;;23.40;55.50;;;;;;4976321;28;20086;-57
2022/06/03 12:28:45;;;;;;;5.70;2.33;;;23.50;54.50;;;;;;4976818;28;20059;-57
2022/06/03 12:31:26;;;;;;;5.28;2.60;;;23.50;54.40;;;;;;4976742;28;20057;-57
2022/06/03 12:33:52;;;;;;;4.60;2.55;;;23.50;52.90;;;;;;4976390;28;20058;-56
2022/06/03 12:36:36;;;;;;;5.15;3.03;;;23.50;53.80;;;;;;4976696;28;20055;-56
2022/06/03 12:39:08;;;;;;;4.78;2.50;;;23.40;52.40;;;;;;4976561;28;20058;-57
2022/06/03 12:41:46;;;;;;;5.72;3.00;;;23.40;53.90;;;;;;4976609;28;20450;-55
2022/06/03 12:44:33;;;;;;;4.38;2.60;;;23.40;53.50;;;;;;4959088;28;20076;-56
2022/06/03 12:47:17;;;;;;;5.03;3.20;;;23.40;53.70;;;;;;4976391;28;20053;-56
2022/06/03 12:49:43;;;;;;;5.20;2.72;;;23.40;53.30;;;;;;4976251;28;20049;-56
2022/06/03 12:52:31;;;;;;;6.57;2.80;;;23.40;52.90;;;;;;4976302;28;20039;-56
2022/06/03 12:55:06;;;;;;;7.88;2.67;;;23.50;52.70;;;;;;4975886;28;20050;-56
2022/06/03 12:57:48;;;;;;;5.82;3.08;;;23.60;53.50;;;;;;4976678;28;20097;-56
2022/06/03 13:00:28;;;;;;;5.00;2.80;;;23.70;53.40;;;;;;4975821;28;20129;-56
2022/06/03 13:02:58;;;;;;;8.18;3.00;;;23.70;53.40;;;;;;4975809;28;20094;-56
2022/06/03 13:05:44;;;;;;;5.90;2.95;;;23.80;53.20;;;;;;4975994;28;20114;-56
2022/06/03 13:08:33;;;;;;;5.20;2.70;;;23.70;52.30;;;;;;4958420;28;20121;-56
2022/06/03 13:11:08;;;;;;;9.13;2.92;;;23.70;53.20;;;;;;4958361;28;20051;-56
2022/06/03 13:13:39;;;;;;;3.67;3.13;;;23.80;54.00;;;;;;4958325;28;20383;-57
2022/06/03 13:16:17;;;;;;;5.47;3.00;;;23.80;52.90;;;;;;4975829;28;20059;-57
2022/06/03 13:18:46;;;;;;;4.78;2.72;;;23.90;52.20;;;;;;4975866;28;20051;-56
2022/06/03 13:21:14;;;;;;;5.57;2.40;;;23.80;52.90;;;;;;4975752;28;20050;-56
2022/06/03 13:23:42;;;;;;;3.40;2.60;;;23.90;53.70;;;;;;4975748;28;20057;-56
2022/06/03 13:26:20;;;;;;;5.03;2.60;;;24.00;53.20;;;;;;4941855;28;20062;-57
2022/06/03 13:29:01;;;;;;;4.90;2.67;;;24.00;52.30;;;;;;4958016;28;20043;-56
2022/06/03 13:31:43;;;;;;;4.60;2.80;;;24.10;52.40;;;;;;4975623;28;20046;-56
2022/06/03 13:34:09;;;;;;;3.70;2.25;;;24.10;51.70;;;;;;4958316;28;20042;-56
2022/06/03 13:36:50;;;;;;;7.65;2.70;;;24.20;53.00;;;;;;4958030;28;20085;-56
2022/06/03 13:39:27;;;;;;;7.60;2.33;;;24.30;52.60;;;;;;4975554;28;20092;-57
2022/06/03 13:45:01;;;;;;;3.85;2.60;;;24.40;51.00;;;;;;4975008;28;20410;-60
2022/06/03 13:47:45;;;;;;;3.50;2.90;;;24.20;50.40;;;;;;4941887;28;20058;-60
2022/06/03 13:50:13;;;;;;;6.15;2.78;;;24.20;51.40;;;;;;4975337;28;20144;-60
2022/06/03 13:52:48;;;;;;;6.40;2.78;;;24.10;51.90;;;;;;4975517;28;20051;-57
2022/06/03 13:55:26;;;;;;;4.20;2.80;;;24.10;51.90;;;;;;4975260;28;20050;-57
2022/06/03 13:58:12;;;;;;;8.20;2.78;;;24.10;52.00;;;;;;4975165;28;20050;-57
2022/06/03 14:00:54;;;;;;;4.30;2.75;;;24.00;52.20;;;;;;4974730;28;20051;-57
2022/06/03 14:03:26;;;;;;;6.95;2.70;;;24.00;52.20;;;;;;4957863;28;20059;-57
2022/06/03 14:05:51;;;;;;;4.45;2.42;;;23.50;52.60;;;;;;4974985;28;20055;-57
2022/06/03 14:08:52;;;;;;;3.83;2.60;;;24.00;52.90;;;;;;4941535;28;20383;-57
2022/06/03 14:11:31;;;;;;;4.47;2.47;;;24.00;52.20;;;;;;4974585;28;20451;-57
2022/06/03 14:14:00;;;;;;;4.10;2.50;;;24.10;53.10;;;;;;4975030;28;20039;-57
2022/06/03 14:17:01;;;;;;;8.55;2.58;;;23.90;52.80;;;;;;4974983;28;20065;-57
2022/06/03 14:19:41;;;;;;;4.80;2.63;;;23.90;52.90;;;;;;4974617;28;20046;-57
2022/06/03 14:23:07;;;;;;;5.13;2.97;;;23.90;52.40;;;;;;4974844;28;20039;-57
2022/06/03 14:25:52;;;;;;;6.07;2.40;;;23.80;51.50;;;;;;4877451;29;20065;-57